Stations météo

Publicité
Siracusa, Italie (16464): Température de l'air & dewpoint: 15.04.2018 13:00:00 - 21.04.2018 13:00:00 (CEST)Siracusa, Italie (16464): Vitesse du vent: 15.04.2018 13:00:00 - 21.04.2018 13:00:00 (CEST)Siracusa, Italie (16464): Direction du vent: 15.04.2018 13:00:00 - 21.04.2018 13:00:00 (CEST)Siracusa, Italie (16464): reduced air pressure: 15.04.2018 13:00:00 - 21.04.2018 13:00:00 (CEST)Siracusa, Italie (16464): Quantités de précipitations: 15.04.2018 13:00:00 - 21.04.2018 13:00:00 (CEST)
Date & Time tt [°C] td [°C] ff [km/h] ff [knt] dd ppp [hPa] rr [mm]
21.04.2018 13:00:00 21,2 12,0 9 5 NNE 1019,7 -
21.04.2018 12:00:00 21,5 11,8 8 4 NE 1019,8 -
21.04.2018 11:00:00 22,3 12,2 8 4 NNE 1019,6 -
21.04.2018 10:00:00 20,9 13,0 5 3 SE 1019,2 -
21.04.2018 09:00:00 19,2 14,8 2 1 SSW 1019,1 -
21.04.2018 08:00:00 14,9 10,7 4 2 W 1018,9 0,0
21.04.2018 07:00:00 13,5 8,9 4 2 W 1018,7 -
21.04.2018 06:00:00 14,0 9,0 4 2 WSW 1018,4 -
21.04.2018 05:00:00 15,8 10,7 0 0 N 1018,3 -
21.04.2018 04:00:00 16,8 12,1 5 3 SW 1018,5 -
21.04.2018 03:00:00 16,8 11,9 5 3 SW 1018,8 -
21.04.2018 02:00:00 17,0 12,5 4 2 WSW 1019,1 0,0
21.04.2018 01:00:00 18,1 14,1 5 3 WNW 1019,3 -
21.04.2018 00:00:00 18,5 13,5 8 4 NNW 1019,4 -
20.04.2018 23:00:00 18,8 13,3 5 3 WNW 1019,2 -
20.04.2018 22:00:00 19,2 13,3 5 3 NW 1019,1 -
20.04.2018 21:00:00 20,0 12,9 2 1 NW 1018,8 -
20.04.2018 20:00:00 20,4 13,5 15 8 NNW 1018,4 0,0
20.04.2018 19:00:00 22,9 12,5 9 5 S 1017,8 -
20.04.2018 18:00:00 23,5 10,8 11 6 S 1018,0 -
20.04.2018 17:00:00 23,3 11,6 11 6 ESE 1018,2 -
20.04.2018 16:00:00 24,1 10,0 8 4 NE 1018,3 -
20.04.2018 15:00:00 23,7 9,6 8 4 NE 1019,0 -
20.04.2018 14:00:00 23,5 9,1 11 6 NNE 1019,7 0,0
20.04.2018 13:00:00 23,3 10,3 11 6 NNE 1020,0 -
20.04.2018 12:00:00 22,2 12,7 5 3 N 1020,4 -
20.04.2018 11:00:00 20,5 13,1 9 5 ENE 1020,6 -
20.04.2018 10:00:00 19,6 13,4 13 7 SE 1020,4 -
20.04.2018 09:00:00 18,4 13,8 11 6 WSW 1020,2 -
20.04.2018 08:00:00 17,0 13,1 11 6 W 1020,3 0,0
20.04.2018 07:00:00 16,5 12,6 18 10 NW 1020,1 -
20.04.2018 06:00:00 15,6 11,9 5 3 NW 1020,2 -
20.04.2018 05:00:00 15,2 11,0 8 4 W 1020,2 -
20.04.2018 04:00:00 16,7 12,8 9 5 NW 1020,5 -
20.04.2018 03:00:00 16,6 12,9 5 3 WNW 1020,9 -
20.04.2018 02:00:00 16,4 12,7 4 2 W 1021,6 0,0
20.04.2018 01:00:00 16,5 13,5 5 3 WNW 1022,1 -
20.04.2018 00:00:00 16,7 13,7 8 4 WNW 1022,2 -
19.04.2018 23:00:00 16,9 13,7 8 4 NW 1022,4 -
19.04.2018 22:00:00 17,1 13,3 8 4 NW 1022,6 -
19.04.2018 21:00:00 17,4 13,4 5 3 NNW 1022,5 -
19.04.2018 20:00:00 17,6 13,6 11 6 NW 1022,2 0,0
19.04.2018 19:00:00 17,9 13,5 9 5 N 1022,0 -
19.04.2018 18:00:00 18,5 13,7 13 7 E 1022,1 -
19.04.2018 17:00:00 18,6 13,6 15 8 ESE 1022,2 -
19.04.2018 16:00:00 19,1 13,8 13 7 SE 1022,4 -
19.04.2018 15:00:00 19,7 14,0 13 7 ESE 1023,0 -
19.04.2018 14:00:00 19,4 13,7 13 7 ESE 1023,5 0,0
19.04.2018 13:00:00 19,5 14,0 13 7 E 1023,7 -
19.04.2018 12:00:00 19,3 14,0 13 7 E 1023,4 -
19.04.2018 11:00:00 19,0 13,8 9 5 NNE 1023,6 -
19.04.2018 10:00:00 18,1 14,1 16 9 NE 1023,2 -
19.04.2018 09:00:00 17,6 13,6 15 8 S 1023,0 -
19.04.2018 08:00:00 16,8 13,6 13 7 NW 1022,9 0,0
19.04.2018 07:00:00 16,3 13,1 13 7 NW 1022,6 -
19.04.2018 06:00:00 16,4 13,2 13 7 NW 1022,4 -
19.04.2018 05:00:00 16,2 13,6 13 7 NNW 1022,2 -
19.04.2018 04:00:00 16,2 13,8 13 7 NW 1022,4 -
19.04.2018 03:00:00 16,4 14,0 9 5 NNW 1022,9 -
19.04.2018 02:00:00 15,7 12,4 4 2 WNW 1023,4 0,0
19.04.2018 01:00:00 15,7 12,6 4 2 WNW 1023,7 -
19.04.2018 00:00:00 16,1 12,8 4 2 W 1023,6 -
18.04.2018 23:00:00 16,3 13,0 4 2 W 1023,7 -
18.04.2018 22:00:00 16,6 13,4 4 2 NW 1023,5 -
18.04.2018 21:00:00 16,9 13,9 8 4 NNW 1022,8 -
18.04.2018 20:00:00 17,3 14,1 11 6 NNW 1022,2 0,0
18.04.2018 19:00:00 17,6 14,2 8 4 NE 1022,5 -
18.04.2018 18:00:00 17,7 14,1 8 4 SSE 1022,6 -
18.04.2018 17:00:00 17,9 14,7 9 5 SE 1022,0 -
18.04.2018 16:00:00 18,2 14,8 9 5 NE 1022,2 -
18.04.2018 15:00:00 18,4 15,0 11 6 NE 1022,3 -
18.04.2018 14:00:00 18,0 14,4 13 7 ENE 1022,5 0,0
18.04.2018 13:00:00 17,8 13,8 11 6 ENE 1022,7 -
18.04.2018 12:00:00 18,4 14,2 11 6 ENE 1023,2 -
18.04.2018 11:00:00 18,0 14,0 11 6 SSW 1023,0 -
18.04.2018 10:00:00 17,7 13,7 11 6 SSE 1022,3 -
18.04.2018 09:00:00 17,3 13,5 13 7 N 1022,0 -
18.04.2018 08:00:00 16,8 13,6 15 8 N 1021,5 0,0
18.04.2018 07:00:00 16,5 13,0 15 8 NNE 1021,3 -
18.04.2018 06:00:00 16,6 12,9 11 6 NE 1020,7 -
18.04.2018 05:00:00 16,9 13,0 16 9 ENE 1020,1 -
18.04.2018 04:00:00 17,3 12,2 13 7 W 1020,2 -
18.04.2018 03:00:00 17,3 11,7 11 6 W 1020,1 -
18.04.2018 02:00:00 17,3 11,7 13 7 WNW 1020,1 0,0
18.04.2018 01:00:00 16,2 10,9 8 4 W 1020,5 -
18.04.2018 00:00:00 17,0 12,7 9 5 WNW 1020,5 -
17.04.2018 23:00:00 17,2 12,5 5 3 W 1020,6 -
17.04.2018 22:00:00 18,0 12,0 4 2 N 1020,1 -
17.04.2018 21:00:00 18,2 11,9 2 1 E 1019,6 -
17.04.2018 20:00:00 18,9 12,4 4 2 SE 1018,8 0,0
17.04.2018 19:00:00 19,7 12,2 5 3 SSE 1018,6 -
17.04.2018 18:00:00 20,7 10,7 5 3 ESE 1018,6 -
17.04.2018 17:00:00 21,1 11,7 5 3 E 1018,5 -
17.04.2018 16:00:00 19,6 11,8 11 6 ENE 1018,9 -
17.04.2018 15:00:00 20,7 10,4 8 4 SE 1019,0 -
17.04.2018 14:00:00 19,4 11,1 9 5 NE 1019,3 0,0
17.04.2018 13:00:00 18,8 12,3 11 6 NE 1019,3 -
17.04.2018 12:00:00 19,4 12,4 9 5 ESE 1019,6 -
17.04.2018 11:00:00 19,5 12,0 4 2 S 1019,5 -
17.04.2018 10:00:00 18,0 11,3 13 7 S 1019,2 -
17.04.2018 09:00:00 17,5 11,7 9 5 S 1018,9 -
17.04.2018 08:00:00 12,9 9,5 2 1 E 1018,5 0,0
17.04.2018 07:00:00 11,2 7,5 4 2 E 1017,7 -
17.04.2018 06:00:00 10,9 7,2 2 1 ESE 1017,3 -
17.04.2018 05:00:00 11,1 7,0 0 0 N 1017,3 -
17.04.2018 04:00:00 12,0 7,9 4 2 ESE 1017,1 -
17.04.2018 03:00:00 12,8 8,8 4 2 SSE 1017,3 -
17.04.2018 02:00:00 13,2 8,6 5 3 ESE 1017,6 0,0
17.04.2018 01:00:00 14,9 10,1 2 1 E 1017,7 -
17.04.2018 00:00:00 16,7 12,0 4 2 ENE 1017,2 -
16.04.2018 23:00:00 16,6 11,5 4 2 SE 1017,0 -
16.04.2018 22:00:00 17,0 11,4 5 3 E 1016,8 -
16.04.2018 21:00:00 18,3 12,7 9 5 SSE 1015,6 -
16.04.2018 20:00:00 19,0 12,2 11 6 S 1014,8 0,0
16.04.2018 19:00:00 19,6 12,3 13 7 S 1013,8 -
16.04.2018 18:00:00 20,9 14,0 9 5 N 1013,2 -
16.04.2018 17:00:00 21,1 14,2 8 4 NE 1012,6 -
16.04.2018 16:00:00 22,2 11,5 11 6 ESE 1012,5 -
16.04.2018 15:00:00 21,9 13,4 11 6 S 1012,7 -
16.04.2018 14:00:00 22,0 13,5 9 5 ESE 1012,7 0,0
16.04.2018 13:00:00 21,3 13,9 11 6 SSE 1013,0 -
16.04.2018 12:00:00 20,8 12,7 8 4 ESE 1012,8 -
16.04.2018 11:00:00 19,4 11,9 8 4 ENE 1012,5 -
16.04.2018 10:00:00 18,9 11,7 8 4 E 1011,9 -
16.04.2018 09:00:00 17,4 12,0 4 2 ESE 1011,4 -
16.04.2018 08:00:00 16,4 11,9 4 2 NNE 1010,9 0,0
16.04.2018 07:00:00 14,9 10,5 0 0 N 1010,4 -
16.04.2018 06:00:00 14,8 10,2 2 1 E 1009,8 -
16.04.2018 05:00:00 15,4 11,5 15 8 S 1009,2 -
16.04.2018 04:00:00 14,6 9,6 4 2 WSW 1009,4 -
16.04.2018 03:00:00 14,8 9,8 8 4 SW 1009,6 -
16.04.2018 02:00:00 15,5 10,6 13 7 SSW 1009,4 0,0
16.04.2018 01:00:00 16,1 10,4 9 5 SSW 1009,5 -
16.04.2018 00:00:00 16,1 9,5 4 2 WSW 1009,4 -
15.04.2018 23:00:00 16,7 9,1 8 4 SW 1009,2 -
15.04.2018 22:00:00 17,2 10,3 9 5 WSW 1008,6 -
15.04.2018 21:00:00 17,8 12,2 9 5 WSW 1007,4 -
15.04.2018 20:00:00 - - 8 4 SSE 1006,3 0,0
15.04.2018 19:00:00 19,4 15,0 5 3 WSW 1006,3 -
15.04.2018 18:00:00 19,6 13,9 5 3 W 1006,0 -
15.04.2018 17:00:00 20,0 14,1 8 4 S 1005,3 -
15.04.2018 16:00:00 20,0 14,1 9 5 SSW 1005,6 -
15.04.2018 15:00:00 20,3 14,1 9 5 S 1006,2 -
15.04.2018 14:00:00 20,0 14,1 13 7 S 1006,3 0,0
15.04.2018 13:00:00 19,7 13,8 13 7 SSW 1006,5 -

tt = Température de l'air
td = dewpoint
ff = Vitesse du vent
dd = Direction du vent
ppp = reduced air pressure
rr = Quantités de précipitations

stations d'obs. à proximité